Аэропорт: Шымкент. Шымкент

ICAO: UAII

METAR:
2018/05/20 23:00
UAII 202300Z 12004MPS CAVOK 12/08 Q1016 R10/0///70 NOSIG RMK QFE727/0969
METAR:
2018/05/20 18:18
TAF UAII 201700Z 2018/2118 07005G10MPS 6000 SCT050 BKN100 TX27/2109Z TN13/2101Z 
      TEMPO 2018/2104 12005MPS 
      TEMPO 2104/2112 30005MPS SCT040CB